Terminal Aerodrome Forecast
Issued by NWS Rapid City, SD

Home | Current Version | Previous Version | Graphics & Text | Print | Product List | Glossary On
Versions: 1 2 3 4 5 6 7 8 9 10 11 12 13 14 15 16 17
799
FTUS43 KUNR 291120
TAFRAP
TAF
KRAP 291120Z 2912/3012 33007KT P6SM SKC
     FM291500 33015KT P6SM SKC
     FM291700 34020G30KT P6SM FEW250
     FM300200 33008KT P6SM FEW250=

USA.gov is the U.S. government's official web portal to all federal, state and local government web resources and services.